createdAt,value
2019-01-10T00:09:18.314Z,2.3
2019-01-10T00:24:29.659Z,2.3
2019-01-10T00:39:40.932Z,2.4
2019-01-10T00:54:52.259Z,2.2
2019-01-10T01:10:03.493Z,1.9
2019-01-10T01:25:13.814Z,2.1
2019-01-10T01:40:26.011Z,2.2
2019-01-10T01:55:37.362Z,2.3
2019-01-10T02:10:48.642Z,2.4
2019-01-10T02:25:54.959Z,2.4
2019-01-10T02:41:11.429Z,2.5
2019-01-10T02:56:22.780Z,2.4
2019-01-10T03:11:34.161Z,2.3
2019-01-10T03:26:45.406Z,2.4
2019-01-10T03:41:56.790Z,2.4
2019-01-10T03:57:08.191Z,2.4
2019-01-10T04:12:19.733Z,2.6
2019-01-10T04:27:30.997Z,2.5
2019-01-10T04:42:42.392Z,2.6
2019-01-10T04:57:53.781Z,2.5
2019-01-10T05:13:05.127Z,2.4
2019-01-10T05:28:16.429Z,2.3
2019-01-10T05:43:23.587Z,2
2019-01-10T05:58:38.903Z,1.9
2019-01-10T06:13:50.133Z,1.9
2019-01-10T06:29:01.347Z,1.9
2019-01-10T06:44:04.121Z,1.8
2019-01-10T06:59:23.766Z,1.8
2019-01-10T07:14:34.810Z,2
2019-01-10T07:29:46.152Z,1.9
2019-01-10T07:45:02.564Z,1.9
2019-01-10T08:00:08.430Z,1.9
2019-01-10T08:15:19.640Z,1.9
2019-01-10T08:30:30.903Z,1.9
2019-01-10T08:45:42.034Z,1.8
2019-01-10T09:00:49.966Z,1.8
2019-01-10T09:16:04.442Z,1.8
2019-01-10T09:31:15.580Z,1.9
2019-01-10T09:46:26.983Z,2
2019-01-10T10:01:29.922Z,2.1
2019-01-10T10:16:49.431Z,2.3
2019-01-10T10:32:00.749Z,2.2
2019-01-10T10:47:12.129Z,2.3
2019-01-10T11:02:23.568Z,2.4
2019-01-10T11:17:34.777Z,2.6
2019-01-10T11:32:46.265Z,2.6
2019-01-10T11:47:57.777Z,2.7
2019-01-10T12:03:09.143Z,2.6
2019-01-10T12:18:16.923Z,2.7
2019-01-10T12:33:32.080Z,2.5
2019-01-10T12:48:43.378Z,2.7
2019-01-10T13:03:54.932Z,2.6
2019-01-10T13:18:58.084Z,1.7
2019-01-10T13:34:17.233Z,1.6
2019-01-10T13:49:28.357Z,1.8
2019-01-10T14:04:39.565Z,2
2019-01-10T14:19:50.706Z,2.1
2019-01-10T14:35:01.903Z,1.9
2019-01-10T14:50:13.083Z,1.9
2019-01-10T15:05:24.235Z,1.6
2019-01-10T15:20:35.316Z,1.5
2019-01-10T15:35:44.523Z,1.5
2019-01-10T15:50:57.572Z,1.5
2019-01-10T16:06:08.386Z,1.4
2019-01-10T16:21:19.395Z,1.5
2019-01-10T16:36:24.586Z,1.5
2019-01-10T16:51:41.383Z,1.4
2019-01-10T17:06:52.413Z,1.3
2019-01-10T17:22:03.261Z,1.2
2019-01-10T17:37:14.208Z,1.1
2019-01-10T17:52:25.202Z,1.1
2019-01-10T18:07:36.084Z,1.1
2019-01-10T18:22:47.145Z,1
2019-01-10T18:37:57.740Z,1
2019-01-10T18:53:09.298Z,0.9
2019-01-10T19:08:19.528Z,0.9
2019-01-10T19:23:30.315Z,0.8
2019-01-10T19:38:41.141Z,0.7
2019-01-10T19:53:49.192Z,0.7
2019-01-10T20:09:02.894Z,0.7
2019-01-10T20:24:13.339Z,0.7
2019-01-10T20:39:24.176Z,0.7
2019-01-10T20:54:28.489Z,0.7
2019-01-10T21:09:45.671Z,0.7
2019-01-10T21:24:56.515Z,0.7
2019-01-10T21:40:07.225Z,1.7
2019-01-10T21:55:18.821Z,2.3
2019-01-10T22:10:29.905Z,1.1
2019-01-10T22:25:40.732Z,0.9
2019-01-10T22:40:51.559Z,0.8
2019-01-10T22:56:02.332Z,0.6
2019-01-10T23:11:11.697Z,0.5
2019-01-10T23:26:23.751Z,0.5
2019-01-10T23:41:34.466Z,0.6
2019-01-10T23:56:45.210Z,0.6
